createdAt,value
2017-12-10T00:00:15.596Z,936.5
2017-12-10T00:01:23.686Z,936.5
2017-12-10T00:02:31.912Z,936.5
2017-12-10T00:03:39.854Z,936.5
2017-12-10T00:04:47.998Z,936.5
2017-12-10T00:05:56.034Z,936.5
2017-12-10T00:07:04.357Z,936.5
2017-12-10T00:08:12.484Z,936.5
2017-12-10T00:09:20.298Z,936.5
2017-12-10T00:10:28.500Z,936.5
2017-12-10T00:11:36.472Z,936.5
2017-12-10T00:12:44.624Z,936.5
2017-12-10T00:13:52.698Z,936.5
2017-12-10T00:15:01.235Z,936.5
2017-12-10T00:16:08.875Z,936.4
2017-12-10T00:17:16.962Z,936.5
2017-12-10T00:18:24.993Z,936.5
2017-12-10T00:19:33.415Z,936.4
2017-12-10T00:20:41.168Z,936.4
2017-12-10T00:21:49.756Z,936.3
2017-12-10T00:22:57.468Z,936.3
2017-12-10T00:24:05.425Z,936.3
2017-12-10T00:25:13.514Z,936.3
2017-12-10T00:26:21.726Z,936.3
2017-12-10T00:27:30.202Z,936.3
2017-12-10T00:28:37.775Z,936.3
2017-12-10T00:29:45.862Z,936.3
2017-12-10T00:30:54.530Z,936.3
2017-12-10T00:32:02.118Z,936.3
2017-12-10T00:33:10.220Z,936.3
2017-12-10T00:34:18.567Z,936.3
2017-12-10T00:35:26.673Z,936.2
2017-12-10T00:36:34.383Z,936.2
2017-12-10T00:37:42.916Z,936.1
2017-12-10T00:38:51.250Z,936.1
2017-12-10T00:39:58.772Z,936.1
2017-12-10T00:41:06.756Z,936.1
2017-12-10T00:42:15.330Z,936.1
2017-12-10T00:43:23.364Z,936.1
2017-12-10T00:44:31.211Z,936.1
2017-12-10T00:45:39.092Z,936.0
2017-12-10T00:46:47.299Z,936.0
2017-12-10T00:47:55.282Z,935.9
2017-12-10T00:49:03.374Z,935.9
2017-12-10T00:50:11.942Z,935.9
2017-12-10T00:51:19.528Z,935.8
2017-12-10T00:52:27.612Z,935.8
2017-12-10T00:53:35.703Z,935.8
2017-12-10T00:54:43.794Z,935.8
2017-12-10T00:55:51.929Z,935.7
2017-12-10T00:56:59.962Z,935.7
2017-12-10T00:58:08.053Z,935.7
2017-12-10T00:59:16.133Z,935.7
2017-12-10T01:00:24.219Z,935.7
2017-12-10T01:01:32.435Z,935.7
2017-12-10T01:02:40.452Z,935.7
2017-12-10T01:03:48.482Z,935.7
2017-12-10T01:04:56.569Z,935.6
2017-12-10T01:06:05.132Z,935.5
2017-12-10T01:07:12.967Z,935.5
2017-12-10T01:08:20.961Z,935.5
2017-12-10T01:09:29.115Z,935.5
2017-12-10T01:10:37.009Z,935.5
2017-12-10T01:11:45.707Z,935.4
2017-12-10T01:12:53.567Z,935.4
2017-12-10T01:14:01.278Z,935.4
2017-12-10T01:15:09.365Z,935.4
2017-12-10T01:16:17.630Z,935.4
2017-12-10T01:17:25.630Z,935.4
2017-12-10T01:18:35.471Z,935.4
2017-12-10T01:19:42.093Z,935.3
2017-12-10T01:20:49.960Z,935.3
2017-12-10T01:21:58.305Z,935.3
2017-12-10T01:23:06.042Z,935.3
2017-12-10T01:24:15.670Z,935.3
2017-12-10T01:25:22.963Z,935.3
2017-12-10T01:26:30.304Z,935.3
2017-12-10T01:27:38.809Z,935.3
2017-12-10T01:28:46.487Z,935.3
2017-12-10T01:29:55.404Z,935.3
2017-12-10T01:31:02.963Z,935.3
2017-12-10T01:32:10.752Z,935.3
2017-12-10T01:33:19.200Z,935.2
2017-12-10T01:34:28.513Z,935.2
2017-12-10T01:35:35.132Z,935.2
2017-12-10T01:36:43.096Z,935.2
2017-12-10T01:37:51.482Z,935.2
2017-12-10T01:38:59.774Z,935.2
2017-12-10T01:40:07.357Z,935.1
2017-12-10T01:41:15.505Z,935.1
2017-12-10T01:42:23.595Z,935.1
2017-12-10T01:43:31.963Z,935.1
2017-12-10T01:44:39.743Z,935.0
2017-12-10T01:45:47.798Z,935.0
2017-12-10T01:46:56.578Z,935.0
2017-12-10T01:48:04.102Z,934.9
2017-12-10T01:49:12.506Z,934.9
2017-12-10T01:50:20.202Z,934.9
2017-12-10T01:51:28.236Z,934.8
2017-12-10T01:52:37.073Z,934.7
2017-12-10T01:53:45.122Z,934.7
2017-12-10T01:54:53.519Z,934.7
2017-12-10T01:56:01.292Z,934.7
2017-12-10T01:57:09.440Z,934.7
2017-12-10T01:58:17.972Z,934.7
2017-12-10T01:59:25.555Z,934.7
2017-12-10T02:00:33.641Z,934.7
2017-12-10T02:01:41.739Z,934.7
2017-12-10T02:02:49.829Z,934.7
2017-12-10T02:03:58.065Z,934.7
2017-12-10T02:05:06.009Z,934.7
2017-12-10T02:06:14.598Z,934.7
2017-12-10T02:07:22.179Z,934.6
2017-12-10T02:08:30.395Z,934.6
2017-12-10T02:09:38.866Z,934.6
2017-12-10T02:10:46.809Z,934.6
2017-12-10T02:11:54.532Z,934.5
2017-12-10T02:13:02.766Z,934.5
2017-12-10T02:14:10.705Z,934.5
2017-12-10T02:15:18.914Z,934.5
2017-12-10T02:16:27.073Z,934.4
2017-12-10T02:17:35.283Z,934.4
2017-12-10T02:18:43.756Z,934.4
2017-12-10T02:19:51.141Z,934.4
2017-12-10T02:20:59.485Z,934.3
2017-12-10T02:22:08.235Z,934.3
2017-12-10T02:23:16.001Z,934.3
2017-12-10T02:24:23.493Z,934.3
2017-12-10T02:25:31.585Z,934.2
2017-12-10T02:26:39.733Z,934.2
2017-12-10T02:27:47.773Z,934.2
2017-12-10T02:28:55.853Z,934.2
2017-12-10T02:30:03.949Z,934.2
2017-12-10T02:31:12.027Z,934.2
2017-12-10T02:32:20.168Z,934.1
2017-12-10T02:33:28.208Z,934.2
2017-12-10T02:34:36.288Z,934.1
2017-12-10T02:35:44.387Z,934.1
2017-12-10T02:36:52.468Z,934.1
2017-12-10T02:38:00.676Z,934.0
2017-12-10T02:39:08.638Z,934.0
2017-12-10T02:40:16.736Z,934.0
2017-12-10T02:41:25.098Z,934.0
2017-12-10T02:42:33.253Z,933.9
2017-12-10T02:43:41.507Z,933.9
2017-12-10T02:44:49.361Z,933.8
2017-12-10T02:45:57.486Z,933.8
2017-12-10T02:47:05.529Z,933.7
2017-12-10T02:48:13.615Z,933.7
2017-12-10T02:49:22.095Z,933.7
2017-12-10T02:50:29.791Z,933.7
2017-12-10T02:51:37.877Z,933.6
2017-12-10T02:52:45.977Z,933.6
2017-12-10T02:53:54.113Z,933.6
2017-12-10T02:55:02.261Z,933.5
2017-12-10T02:56:10.230Z,933.5
2017-12-10T02:57:18.392Z,933.4
2017-12-10T02:58:26.435Z,933.3
2017-12-10T02:59:34.490Z,933.4
2017-12-10T03:00:42.635Z,933.3
2017-12-10T03:01:50.668Z,933.2
2017-12-10T03:02:58.789Z,933.3
2017-12-10T03:04:06.850Z,933.2
2017-12-10T03:05:15.019Z,933.2
2017-12-10T03:06:23.084Z,933.2
2017-12-10T03:07:31.110Z,933.2
2017-12-10T03:08:39.207Z,933.2
2017-12-10T03:09:48.017Z,933.2
2017-12-10T03:10:55.388Z,933.1
2017-12-10T03:12:03.607Z,933.1
2017-12-10T03:13:11.558Z,933.0
2017-12-10T03:14:19.642Z,932.9
2017-12-10T03:15:28.089Z,932.9
2017-12-10T03:16:35.819Z,932.8
2017-12-10T03:17:44.034Z,932.8
2017-12-10T03:18:51.993Z,932.8
2017-12-10T03:20:00.087Z,932.7
2017-12-10T03:21:08.173Z,932.6
2017-12-10T03:22:16.258Z,932.6
2017-12-10T03:23:24.524Z,932.5
2017-12-10T03:24:32.431Z,932.5
2017-12-10T03:25:40.574Z,932.5
2017-12-10T03:26:48.655Z,932.6
2017-12-10T03:27:56.711Z,932.6
2017-12-10T03:29:04.842Z,932.6
2017-12-10T03:30:13.040Z,932.6
2017-12-10T03:31:21.462Z,932.5
2017-12-10T03:32:29.717Z,932.6
2017-12-10T03:33:37.642Z,932.6
2017-12-10T03:34:45.921Z,932.6
2017-12-10T03:35:53.808Z,932.5
2017-12-10T03:37:02.064Z,932.5
2017-12-10T03:38:09.984Z,932.5
2017-12-10T03:39:18.076Z,932.5
2017-12-10T03:40:26.410Z,932.5
2017-12-10T03:41:34.313Z,932.5
2017-12-10T03:42:42.382Z,932.4
2017-12-10T03:43:50.432Z,932.5
2017-12-10T03:44:58.509Z,932.4
2017-12-10T03:46:06.760Z,932.3
2017-12-10T03:47:14.683Z,932.2
2017-12-10T03:48:22.768Z,932.3
2017-12-10T03:49:30.872Z,932.3
2017-12-10T03:50:39.005Z,932.2
2017-12-10T03:51:47.168Z,932.3
2017-12-10T03:52:55.206Z,932.3
2017-12-10T03:54:03.292Z,932.3
2017-12-10T03:55:11.443Z,932.3
2017-12-10T03:56:19.467Z,932.3
2017-12-10T03:57:27.700Z,932.2
2017-12-10T03:58:35.641Z,932.2
2017-12-10T03:59:43.729Z,932.1
2017-12-10T04:00:51.827Z,932.1
2017-12-10T04:01:59.914Z,932.1
2017-12-10T04:03:08.054Z,932.0
2017-12-10T04:04:16.082Z,932.0
2017-12-10T04:05:24.171Z,931.9
2017-12-10T04:06:32.298Z,931.9
2017-12-10T04:07:40.347Z,931.8
2017-12-10T04:08:48.487Z,931.8
2017-12-10T04:09:56.535Z,931.8
2017-12-10T04:11:04.661Z,931.7
2017-12-10T04:12:12.729Z,931.7
2017-12-10T04:13:20.942Z,931.7
2017-12-10T04:14:29.025Z,931.6
2017-12-10T04:15:36.990Z,931.6
2017-12-10T04:16:45.086Z,931.6
2017-12-10T04:17:53.164Z,931.6
2017-12-10T04:19:01.252Z,931.5
2017-12-10T04:20:09.446Z,931.5
2017-12-10T04:21:17.436Z,931.5
2017-12-10T04:22:25.516Z,931.5
2017-12-10T04:23:33.604Z,931.4
2017-12-10T04:24:41.693Z,931.5
2017-12-10T04:25:49.896Z,931.4
2017-12-10T04:26:57.863Z,931.4
2017-12-10T04:28:05.965Z,931.4
2017-12-10T04:29:14.288Z,931.3
2017-12-10T04:30:22.127Z,931.3
2017-12-10T04:31:30.439Z,931.3
2017-12-10T04:32:38.443Z,931.3
2017-12-10T04:33:46.407Z,931.3
2017-12-10T04:34:54.493Z,931.3
2017-12-10T04:36:02.723Z,931.3
2017-12-10T04:37:10.795Z,931.2
2017-12-10T04:38:18.768Z,931.1
2017-12-10T04:39:26.855Z,931.2
2017-12-10T04:40:35.082Z,931.1
2017-12-10T04:41:43.029Z,931.0
2017-12-10T04:42:51.171Z,931.0
2017-12-10T04:43:59.202Z,931.0
2017-12-10T04:45:07.572Z,930.9
2017-12-10T04:46:15.434Z,930.9
2017-12-10T04:47:23.465Z,930.8
2017-12-10T04:48:31.672Z,930.8
2017-12-10T04:49:39.639Z,930.8
2017-12-10T04:50:47.886Z,930.8
2017-12-10T04:51:55.815Z,930.7
2017-12-10T04:53:03.900Z,930.7
2017-12-10T04:54:12.048Z,930.7
2017-12-10T04:55:20.089Z,930.6
2017-12-10T04:56:28.165Z,930.7
2017-12-10T04:57:36.253Z,930.6
2017-12-10T04:58:44.339Z,930.6
2017-12-10T04:59:52.621Z,930.6
2017-12-10T05:01:00.649Z,930.6
2017-12-10T05:02:08.600Z,930.5
2017-12-10T05:03:16.689Z,930.5
2017-12-10T05:04:24.813Z,930.5
2017-12-10T05:05:32.984Z,930.5
2017-12-10T05:06:40.952Z,930.5
2017-12-10T05:07:49.045Z,930.4
2017-12-10T05:08:57.296Z,930.4
2017-12-10T05:10:05.211Z,930.4
2017-12-10T05:11:13.419Z,930.3
2017-12-10T05:12:21.395Z,930.3
2017-12-10T05:13:29.600Z,930.3
2017-12-10T05:14:37.615Z,930.3
2017-12-10T05:15:46.089Z,930.2
2017-12-10T05:16:54.219Z,930.2
2017-12-10T05:18:02.099Z,930.2
2017-12-10T05:19:10.187Z,930.2
2017-12-10T05:20:18.275Z,930.1
2017-12-10T05:21:26.450Z,930.1
2017-12-10T05:22:34.508Z,930.1
2017-12-10T05:23:42.538Z,930.0
2017-12-10T05:24:50.624Z,930.0
2017-12-10T05:25:58.869Z,929.9
2017-12-10T05:27:06.813Z,929.9
2017-12-10T05:28:14.960Z,929.9
2017-12-10T05:29:22.990Z,929.9
2017-12-10T05:30:31.076Z,929.9
2017-12-10T05:31:39.164Z,929.9
2017-12-10T05:32:47.374Z,929.9
2017-12-10T05:33:55.401Z,929.9
2017-12-10T05:35:03.741Z,929.9
2017-12-10T05:36:11.782Z,929.9
2017-12-10T05:37:19.868Z,929.8
2017-12-10T05:38:27.957Z,929.8
2017-12-10T05:39:36.097Z,929.8
2017-12-10T05:40:44.129Z,929.8
2017-12-10T05:41:52.216Z,929.8
2017-12-10T05:43:00.302Z,929.8
2017-12-10T05:44:08.516Z,929.8
2017-12-10T05:45:16.603Z,929.7
2017-12-10T05:46:24.565Z,929.7
2017-12-10T05:47:32.817Z,929.7
2017-12-10T05:48:40.795Z,929.6
2017-12-10T05:49:48.824Z,929.5
2017-12-10T05:50:57.070Z,929.6
2017-12-10T05:52:05.065Z,929.5
2017-12-10T05:53:13.123Z,929.5
2017-12-10T05:54:21.212Z,929.4
2017-12-10T05:55:29.299Z,929.4
2017-12-10T05:56:37.582Z,929.3
2017-12-10T05:57:45.473Z,929.2
2017-12-10T05:58:53.560Z,929.1
2017-12-10T06:00:02.085Z,929.1
2017-12-10T06:01:09.853Z,929.0
2017-12-10T06:02:17.876Z,929.0
2017-12-10T06:03:25.908Z,928.9
2017-12-10T06:04:34.051Z,928.9
2017-12-10T06:05:42.082Z,928.8
2017-12-10T06:06:50.219Z,928.7
2017-12-10T06:07:58.315Z,928.7
2017-12-10T06:09:06.350Z,928.7
2017-12-10T06:10:14.444Z,928.6
2017-12-10T06:11:22.775Z,928.6
2017-12-10T06:12:30.874Z,928.5
2017-12-10T06:13:39.082Z,928.5
2017-12-10T06:14:47.048Z,928.5
2017-12-10T06:15:55.146Z,928.5
2017-12-10T06:17:03.221Z,928.5
2017-12-10T06:18:11.310Z,928.4
2017-12-10T06:19:19.586Z,928.4
2017-12-10T06:20:27.541Z,928.4
2017-12-10T06:21:35.573Z,928.4
2017-12-10T06:22:43.661Z,928.4
2017-12-10T06:23:51.748Z,928.4
2017-12-10T06:24:59.888Z,928.3
2017-12-10T06:26:07.922Z,928.3
2017-12-10T06:27:16.020Z,928.2
2017-12-10T06:28:24.115Z,928.2
2017-12-10T06:29:32.196Z,928.1
2017-12-10T06:30:40.339Z,928.0
2017-12-10T06:31:48.370Z,927.9
2017-12-10T06:32:56.538Z,927.9
2017-12-10T06:34:04.545Z,927.8
2017-12-10T06:35:12.633Z,927.7
2017-12-10T06:36:20.838Z,927.6
2017-12-10T06:37:28.901Z,927.5
2017-12-10T06:38:36.895Z,927.5
2017-12-10T06:39:44.980Z,927.4
2017-12-10T06:40:53.069Z,927.4
2017-12-10T06:42:01.215Z,927.3
2017-12-10T06:43:09.249Z,927.2
2017-12-10T06:44:17.330Z,927.2
2017-12-10T06:45:25.426Z,927.1
2017-12-10T06:46:33.596Z,927.1
2017-12-10T06:47:41.648Z,927.0
2017-12-10T06:48:49.679Z,927.0
2017-12-10T06:49:57.767Z,926.9
2017-12-10T06:51:06.045Z,926.9
2017-12-10T06:52:14.000Z,926.9
2017-12-10T06:53:22.149Z,926.9
2017-12-10T06:54:30.116Z,926.8
2017-12-10T06:55:38.390Z,926.8
2017-12-10T06:56:46.288Z,926.7
2017-12-10T06:57:54.379Z,926.7
2017-12-10T06:59:02.521Z,926.7
2017-12-10T07:00:10.554Z,926.6
2017-12-10T07:01:18.640Z,926.6
2017-12-10T07:02:26.730Z,926.5
2017-12-10T07:03:34.821Z,926.5
2017-12-10T07:04:43.021Z,926.4
2017-12-10T07:05:51.119Z,926.4
2017-12-10T07:06:59.075Z,926.3
2017-12-10T07:08:07.221Z,926.3
2017-12-10T07:09:15.258Z,926.1
2017-12-10T07:10:23.393Z,926.1
2017-12-10T07:11:31.428Z,926.0
2017-12-10T07:12:39.514Z,926.0
2017-12-10T07:13:47.763Z,926.0
2017-12-10T07:14:55.799Z,926.0
2017-12-10T07:16:03.852Z,925.9
2017-12-10T07:17:11.882Z,925.9
2017-12-10T07:18:20.045Z,925.9
2017-12-10T07:19:28.055Z,925.9
2017-12-10T07:20:36.142Z,925.9
2017-12-10T07:21:44.351Z,925.9
2017-12-10T07:22:52.316Z,925.9
2017-12-10T07:24:00.462Z,925.8
2017-12-10T07:25:08.493Z,925.7
2017-12-10T07:26:16.582Z,925.7
2017-12-10T07:27:24.725Z,925.7
2017-12-10T07:28:32.766Z,925.7
2017-12-10T07:29:40.839Z,925.7
2017-12-10T07:30:48.934Z,925.7
2017-12-10T07:31:57.018Z,925.6
2017-12-10T07:33:05.165Z,925.6
2017-12-10T07:34:13.196Z,925.7
2017-12-10T07:35:21.286Z,925.7
2017-12-10T07:36:29.443Z,925.6
2017-12-10T07:37:37.544Z,925.7
2017-12-10T07:38:45.689Z,925.7
2017-12-10T07:39:53.774Z,925.7
2017-12-10T07:41:01.812Z,925.6
2017-12-10T07:42:09.956Z,925.6
2017-12-10T07:43:17.989Z,925.6
2017-12-10T07:44:26.193Z,925.6
2017-12-10T07:45:34.162Z,925.6
2017-12-10T07:46:42.324Z,925.5
2017-12-10T07:47:50.339Z,925.4
2017-12-10T07:48:58.421Z,925.4
2017-12-10T07:50:06.562Z,925.5
2017-12-10T07:51:14.597Z,925.5
2017-12-10T07:52:22.741Z,925.4
2017-12-10T07:53:30.774Z,925.3
2017-12-10T07:54:38.859Z,925.3
2017-12-10T07:55:47.001Z,925.3
2017-12-10T07:56:55.033Z,925.2
2017-12-10T07:58:03.119Z,925.2
2017-12-10T07:59:11.207Z,925.2
2017-12-10T08:00:19.350Z,925.2
2017-12-10T08:01:27.440Z,925.1
2017-12-10T08:02:35.471Z,925.0
2017-12-10T08:03:43.558Z,924.8
2017-12-10T08:04:51.690Z,924.7
2017-12-10T08:05:59.735Z,924.6
2017-12-10T08:07:07.877Z,924.5
2017-12-10T08:08:15.906Z,924.3
2017-12-10T08:09:24.167Z,924.3
2017-12-10T08:10:32.100Z,924.3
2017-12-10T08:11:40.254Z,924.3
2017-12-10T08:12:48.321Z,924.2
2017-12-10T08:13:56.510Z,924.2
2017-12-10T08:15:04.439Z,924.2
2017-12-10T08:16:12.525Z,924.2
2017-12-10T08:17:20.616Z,924.2
2017-12-10T08:18:28.890Z,924.1
2017-12-10T08:19:36.789Z,924.0
2017-12-10T08:20:44.876Z,924.0
2017-12-10T08:21:52.964Z,923.9
2017-12-10T08:23:01.051Z,923.8
2017-12-10T08:24:09.197Z,923.8
2017-12-10T08:25:17.226Z,923.7
2017-12-10T08:26:25.312Z,923.6
2017-12-10T08:27:33.456Z,923.5
2017-12-10T08:28:41.486Z,923.6
2017-12-10T08:29:49.694Z,923.6
2017-12-10T08:30:57.709Z,923.6
2017-12-10T08:32:05.838Z,923.5
2017-12-10T08:33:14.023Z,923.5
2017-12-10T08:34:21.971Z,923.5
2017-12-10T08:35:30.114Z,923.4
2017-12-10T08:36:38.146Z,923.4
2017-12-10T08:37:46.230Z,923.3
2017-12-10T08:38:54.352Z,923.4
2017-12-10T08:40:02.400Z,923.4
2017-12-10T08:41:10.591Z,923.3
2017-12-10T08:42:18.578Z,923.2
2017-12-10T08:43:28.343Z,923.2
2017-12-10T08:44:34.751Z,923.2
2017-12-10T08:45:42.989Z,923.2
2017-12-10T08:46:51.045Z,923.1
2017-12-10T08:47:59.012Z,923.0
2017-12-10T08:49:07.103Z,923.0
2017-12-10T08:50:15.192Z,922.9
2017-12-10T08:51:23.274Z,922.9
2017-12-10T08:52:31.427Z,922.8
2017-12-10T08:53:39.453Z,922.8
2017-12-10T08:54:47.678Z,922.8
2017-12-10T08:55:55.623Z,922.7
2017-12-10T08:57:03.710Z,922.7
2017-12-10T08:58:11.850Z,922.7
2017-12-10T08:59:20.002Z,922.7
2017-12-10T09:00:27.972Z,922.6
2017-12-10T09:01:36.062Z,922.6
2017-12-10T09:02:44.144Z,922.6
2017-12-10T09:03:52.286Z,922.6
2017-12-10T09:05:00.664Z,922.6
2017-12-10T09:06:08.619Z,922.5
2017-12-10T09:07:16.499Z,922.5
2017-12-10T09:08:24.597Z,922.4
2017-12-10T09:09:32.741Z,922.5
2017-12-10T09:10:40.778Z,922.4
2017-12-10T09:11:48.863Z,922.4
2017-12-10T09:12:56.957Z,922.3
2017-12-10T09:14:05.038Z,922.3
2017-12-10T09:15:13.247Z,922.1
2017-12-10T09:16:21.216Z,922.1
2017-12-10T09:17:29.301Z,922.0
2017-12-10T09:18:37.386Z,922.0
2017-12-10T09:19:45.475Z,921.9
2017-12-10T09:20:53.681Z,921.8
2017-12-10T09:22:01.651Z,921.8
2017-12-10T09:23:09.742Z,921.7
2017-12-10T09:24:18.199Z,921.7
2017-12-10T09:25:25.959Z,921.7
2017-12-10T09:26:34.060Z,921.6
2017-12-10T09:27:42.100Z,921.6
2017-12-10T09:28:50.453Z,921.6
2017-12-10T09:29:58.275Z,921.5
2017-12-10T09:31:06.418Z,921.4
2017-12-10T09:32:14.569Z,921.5
2017-12-10T09:33:22.548Z,921.4
2017-12-10T09:34:30.633Z,921.5
2017-12-10T09:35:38.729Z,921.4
2017-12-10T09:36:46.818Z,921.4
2017-12-10T09:37:54.956Z,921.3
2017-12-10T09:39:02.995Z,921.4
2017-12-10T09:40:11.087Z,921.3
2017-12-10T09:41:19.174Z,921.3
2017-12-10T09:42:27.268Z,921.2
2017-12-10T09:43:35.414Z,921.2
2017-12-10T09:44:43.440Z,921.1
2017-12-10T09:45:51.572Z,921.1
2017-12-10T09:47:00.030Z,921.0
2017-12-10T09:48:07.808Z,921.0
2017-12-10T09:49:15.949Z,921.0
2017-12-10T09:50:23.978Z,920.9
2017-12-10T09:51:32.066Z,920.8
2017-12-10T09:52:40.423Z,920.8
2017-12-10T09:53:48.420Z,920.7
2017-12-10T09:54:56.550Z,920.6
2017-12-10T09:56:04.419Z,920.5
2017-12-10T09:57:12.512Z,920.4
2017-12-10T09:58:20.591Z,920.4
2017-12-10T09:59:28.688Z,920.3
2017-12-10T10:00:36.822Z,920.1
2017-12-10T10:01:44.859Z,920.1
2017-12-10T10:02:53.138Z,920.1
2017-12-10T10:04:01.047Z,920.0
2017-12-10T10:05:09.118Z,920.0
2017-12-10T10:06:17.266Z,920.1
2017-12-10T10:07:25.467Z,920.1
2017-12-10T10:08:33.408Z,920.1
2017-12-10T10:09:41.522Z,920.2
2017-12-10T10:10:49.557Z,920.2
2017-12-10T10:11:57.707Z,920.1
2017-12-10T10:13:05.750Z,920.1
2017-12-10T10:14:13.817Z,920.0
2017-12-10T10:15:21.902Z,919.8
2017-12-10T10:16:29.990Z,919.8
2017-12-10T10:17:38.219Z,919.7
2017-12-10T10:18:46.220Z,919.6
2017-12-10T10:19:54.250Z,919.6
2017-12-10T10:21:02.348Z,919.5
2017-12-10T10:22:10.546Z,919.5
2017-12-10T10:23:18.579Z,919.4
2017-12-10T10:24:26.614Z,919.4
2017-12-10T10:25:34.695Z,919.3
2017-12-10T10:26:42.780Z,919.4
2017-12-10T10:27:50.867Z,919.3
2017-12-10T10:28:59.074Z,919.3
2017-12-10T10:30:07.064Z,919.1
2017-12-10T10:31:15.135Z,919.2
2017-12-10T10:32:23.335Z,919.2
2017-12-10T10:33:31.295Z,919.1
2017-12-10T10:34:39.440Z,919.1
2017-12-10T10:35:47.471Z,919.1
2017-12-10T10:36:55.558Z,919.0
2017-12-10T10:38:03.646Z,919.0
2017-12-10T10:39:11.729Z,919.0
2017-12-10T10:40:20.050Z,919.0
2017-12-10T10:41:28.395Z,918.9
2017-12-10T10:42:36.672Z,918.9
2017-12-10T10:43:44.737Z,918.9
2017-12-10T10:44:52.664Z,918.9
2017-12-10T10:46:00.807Z,918.7
2017-12-10T10:47:08.843Z,918.6
2017-12-10T10:48:16.925Z,918.6
2017-12-10T10:49:25.010Z,918.5
2017-12-10T10:50:33.154Z,918.5
2017-12-10T10:51:41.495Z,918.5
2017-12-10T10:52:49.269Z,918.5
2017-12-10T10:53:57.358Z,918.5
2017-12-10T10:55:05.441Z,918.4
2017-12-10T10:56:13.526Z,918.4
2017-12-10T10:57:21.675Z,918.4
2017-12-10T10:58:29.700Z,918.3
2017-12-10T10:59:37.787Z,918.3
2017-12-10T11:00:45.873Z,918.1
2017-12-10T11:01:54.004Z,918.1
2017-12-10T11:03:02.102Z,918.0
2017-12-10T11:04:10.130Z,917.9
2017-12-10T11:05:18.221Z,918.0
2017-12-10T11:06:26.363Z,917.8
2017-12-10T11:07:34.393Z,917.9
2017-12-10T11:08:42.600Z,917.8
2017-12-10T11:09:50.568Z,917.7
2017-12-10T11:10:58.652Z,917.7
2017-12-10T11:12:06.794Z,917.6
2017-12-10T11:13:14.829Z,917.6
2017-12-10T11:14:23.134Z,917.5
2017-12-10T11:15:31.005Z,917.5
2017-12-10T11:16:39.080Z,917.4
2017-12-10T11:17:47.169Z,917.3
2017-12-10T11:18:55.439Z,917.4
2017-12-10T11:20:03.800Z,917.3
2017-12-10T11:21:11.839Z,917.3
2017-12-10T11:22:20.164Z,917.2
2017-12-10T11:23:28.075Z,917.1
2017-12-10T11:24:36.098Z,917.1
2017-12-10T11:25:44.240Z,917.1
2017-12-10T11:26:52.408Z,917.0
2017-12-10T11:28:00.425Z,917.0
2017-12-10T11:29:08.465Z,917.0
2017-12-10T11:30:16.530Z,917.0
2017-12-10T11:31:24.679Z,916.9
2017-12-10T11:32:32.811Z,916.9
2017-12-10T11:33:40.793Z,916.8
2017-12-10T11:34:48.880Z,916.8
2017-12-10T11:35:56.963Z,916.7
2017-12-10T11:37:05.112Z,916.6
2017-12-10T11:38:13.276Z,916.5
2017-12-10T11:39:21.228Z,916.6
2017-12-10T11:40:29.315Z,916.5
2017-12-10T11:41:37.479Z,916.4
2017-12-10T11:42:45.543Z,916.4
2017-12-10T11:43:53.582Z,916.4
2017-12-10T11:45:01.670Z,916.3
2017-12-10T11:46:09.756Z,916.3
2017-12-10T11:47:17.842Z,916.5
2017-12-10T11:48:25.985Z,916.3
2017-12-10T11:49:34.067Z,916.3
2017-12-10T11:50:42.177Z,916.3
2017-12-10T11:51:50.217Z,916.2
2017-12-10T11:52:58.287Z,916.2
2017-12-10T11:54:06.426Z,916.3
2017-12-10T11:55:14.605Z,916.2
2017-12-10T11:56:22.536Z,916.1
2017-12-10T11:57:30.651Z,916.2
2017-12-10T11:58:38.708Z,916.1
2017-12-10T11:59:46.890Z,916.1
2017-12-10T12:00:54.881Z,916.0
2017-12-10T12:02:02.969Z,916.1
2017-12-10T12:03:11.055Z,916.0
2017-12-10T12:04:19.142Z,916.0
2017-12-10T12:05:27.286Z,916.1
2017-12-10T12:06:35.313Z,916.0
2017-12-10T12:07:43.411Z,916.0
2017-12-10T12:08:51.498Z,915.9
2017-12-10T12:09:59.637Z,915.9
2017-12-10T12:11:07.790Z,915.9
2017-12-10T12:12:15.756Z,915.8
2017-12-10T12:13:23.899Z,915.8
2017-12-10T12:14:31.929Z,915.7
2017-12-10T12:15:40.017Z,915.7
2017-12-10T12:16:48.156Z,915.8
2017-12-10T12:17:56.328Z,915.8
2017-12-10T12:19:04.611Z,915.8
2017-12-10T12:20:12.751Z,915.7
2017-12-10T12:21:20.938Z,915.7
2017-12-10T12:22:28.927Z,915.8
2017-12-10T12:23:36.956Z,915.8
2017-12-10T12:24:45.043Z,915.8
2017-12-10T12:25:53.191Z,915.7
2017-12-10T12:27:01.217Z,915.7
2017-12-10T12:28:09.356Z,915.7
2017-12-10T12:29:17.387Z,915.7
2017-12-10T12:30:25.472Z,915.6
2017-12-10T12:31:33.649Z,915.6
2017-12-10T12:32:41.644Z,915.6
2017-12-10T12:33:49.851Z,915.6
2017-12-10T12:34:57.856Z,915.6
2017-12-10T12:36:05.906Z,915.6
2017-12-10T12:37:13.991Z,915.5
2017-12-10T12:38:22.076Z,915.5
2017-12-10T12:39:30.245Z,915.5
2017-12-10T12:40:38.925Z,915.4
2017-12-10T12:41:47.282Z,915.4
2017-12-10T12:42:55.095Z,915.2
2017-12-10T12:44:03.183Z,915.3
2017-12-10T12:45:11.393Z,915.2
2017-12-10T12:46:19.425Z,915.1
2017-12-10T12:47:27.443Z,915.0
2017-12-10T12:48:35.531Z,915.1
2017-12-10T12:49:43.616Z,915.0
2017-12-10T12:50:51.823Z,915.0
2017-12-10T12:51:59.787Z,915.0
2017-12-10T12:53:07.875Z,915.0
2017-12-10T12:54:15.961Z,914.9
2017-12-10T12:55:24.047Z,914.9
2017-12-10T12:56:32.189Z,915.0
2017-12-10T12:57:40.340Z,914.9
2017-12-10T12:58:48.304Z,914.9
2017-12-10T12:59:56.392Z,914.9
2017-12-10T13:01:04.477Z,914.9
2017-12-10T13:02:12.618Z,914.9
2017-12-10T13:03:20.650Z,914.9
2017-12-10T13:04:28.734Z,914.9
2017-12-10T13:05:36.830Z,914.9
2017-12-10T13:06:44.910Z,914.9
2017-12-10T13:07:53.052Z,914.9
2017-12-10T13:09:01.084Z,914.9
2017-12-10T13:10:09.167Z,914.8
2017-12-10T13:11:17.256Z,914.8
2017-12-10T13:12:25.343Z,914.8
2017-12-10T13:13:33.548Z,914.8
2017-12-10T13:14:41.600Z,914.8
2017-12-10T13:15:49.599Z,914.8
2017-12-10T13:16:57.687Z,914.8
2017-12-10T13:18:06.091Z,914.7
2017-12-10T13:19:14.233Z,914.8
2017-12-10T13:20:22.264Z,914.9
2017-12-10T13:21:30.417Z,914.9
2017-12-10T13:22:38.450Z,914.8
2017-12-10T13:23:46.525Z,914.9
2017-12-10T13:24:54.666Z,914.9
2017-12-10T13:26:02.700Z,914.9
2017-12-10T13:27:10.879Z,915.0
2017-12-10T13:28:18.869Z,915.0
2017-12-10T13:29:27.075Z,915.0
2017-12-10T13:30:35.170Z,915.0
2017-12-10T13:31:43.137Z,915.1
2017-12-10T13:32:51.222Z,915.2
2017-12-10T13:33:59.482Z,915.2
2017-12-10T13:35:07.563Z,915.2
2017-12-10T13:36:15.705Z,915.2
2017-12-10T13:37:23.737Z,915.2
2017-12-10T13:38:31.821Z,915.1
2017-12-10T13:39:40.086Z,915.1
2017-12-10T13:40:47.994Z,915.1
2017-12-10T13:41:56.136Z,915.1
2017-12-10T13:43:04.165Z,915.0
2017-12-10T13:44:12.446Z,915.0
2017-12-10T13:45:20.392Z,915.0
2017-12-10T13:46:28.424Z,915.0
2017-12-10T13:47:36.636Z,915.0
2017-12-10T13:48:44.598Z,915.0
2017-12-10T13:49:52.719Z,915.0
2017-12-10T13:51:00.772Z,915.0
2017-12-10T13:52:08.857Z,915.1
2017-12-10T13:53:17.000Z,915.1
2017-12-10T13:54:25.028Z,915.0
2017-12-10T13:55:33.117Z,915.1
2017-12-10T13:56:41.200Z,915.1
2017-12-10T13:57:49.285Z,915.1
2017-12-10T13:58:57.496Z,915.2
2017-12-10T14:00:05.457Z,915.2
2017-12-10T14:01:13.609Z,915.3
2017-12-10T14:02:21.639Z,915.4
2017-12-10T14:03:29.730Z,915.4
2017-12-10T14:04:37.924Z,915.4
2017-12-10T14:05:45.896Z,915.4
2017-12-10T14:06:54.043Z,915.4
2017-12-10T14:08:02.089Z,915.5
2017-12-10T14:09:10.155Z,915.4
2017-12-10T14:10:18.297Z,915.5
2017-12-10T14:11:26.329Z,915.5
2017-12-10T14:12:34.518Z,915.6
2017-12-10T14:13:42.505Z,915.5
2017-12-10T14:14:50.587Z,915.5
2017-12-10T14:15:58.790Z,915.6
2017-12-10T14:17:06.931Z,915.6
2017-12-10T14:18:15.118Z,915.6
2017-12-10T14:19:23.217Z,915.6
2017-12-10T14:20:31.387Z,915.6
2017-12-10T14:21:39.510Z,915.7
2017-12-10T14:22:47.478Z,915.7
2017-12-10T14:23:55.563Z,915.6
2017-12-10T14:25:03.817Z,915.7
2017-12-10T14:26:11.737Z,915.7
2017-12-10T14:27:19.878Z,915.6
2017-12-10T14:28:27.909Z,915.6
2017-12-10T14:29:36.165Z,915.7
2017-12-10T14:30:44.080Z,915.6
2017-12-10T14:31:52.166Z,915.7
2017-12-10T14:33:00.373Z,915.7
2017-12-10T14:34:08.379Z,915.7
2017-12-10T14:35:16.467Z,915.7
2017-12-10T14:36:24.560Z,915.6